createdAt,value
2019-03-15T00:00:32.598Z,7.39
2019-03-15T00:01:13.147Z,7.5
2019-03-15T00:01:53.710Z,7.4
2019-03-15T00:02:34.258Z,7.4
2019-03-15T00:03:14.847Z,7.47
2019-03-15T00:03:55.429Z,7.5
2019-03-15T00:04:36.149Z,7.42
2019-03-15T00:05:16.567Z,7.42
2019-03-15T00:05:57.148Z,7.47
2019-03-15T00:06:37.732Z,7.48
2019-03-15T00:07:18.302Z,7.42
2019-03-15T00:07:58.888Z,7.42
2019-03-15T00:08:39.435Z,7.47
2019-03-15T00:09:20.023Z,7.39
2019-03-15T00:10:00.590Z,7.43
2019-03-15T00:10:41.153Z,7.43
2019-03-15T00:11:21.750Z,7.32
2019-03-15T00:12:02.293Z,7.36
2019-03-15T00:12:42.849Z,7.35
2019-03-15T00:13:23.413Z,7.29
2019-03-15T00:14:03.966Z,7.35
2019-03-15T00:14:44.527Z,7.32
2019-03-15T00:15:25.064Z,7.32
2019-03-15T00:16:05.625Z,7.29
2019-03-15T00:16:46.222Z,7.33
2019-03-15T00:17:26.788Z,7.31
2019-03-15T00:18:07.341Z,7.28
2019-03-15T00:18:47.879Z,7.25
2019-03-15T00:19:28.464Z,7.31
2019-03-15T00:20:09.036Z,7.29
2019-03-15T00:20:49.611Z,7.31
2019-03-15T00:21:30.165Z,7.35
2019-03-15T00:22:10.730Z,7.32
2019-03-15T00:22:51.301Z,7.33
2019-03-15T00:23:31.854Z,7.35
2019-03-15T00:24:12.420Z,7.31
2019-03-15T00:24:53.004Z,7.29
2019-03-15T00:25:33.560Z,7.28
2019-03-15T00:26:14.147Z,7.35
2019-03-15T00:26:54.733Z,7.35
2019-03-15T00:27:35.299Z,7.29
2019-03-15T00:28:15.875Z,7.25
2019-03-15T00:28:56.438Z,7.29
2019-03-15T00:29:37.008Z,7.2
2019-03-15T00:30:17.578Z,7.28
2019-03-15T00:30:58.145Z,7.33
2019-03-15T00:31:38.709Z,7.25
2019-03-15T00:32:19.313Z,7.23
2019-03-15T00:32:59.861Z,7.28
2019-03-15T00:33:40.454Z,7.35
2019-03-15T00:34:20.997Z,7.31
2019-03-15T00:35:01.577Z,7.25
2019-03-15T00:35:42.170Z,7.32
2019-03-15T00:36:22.727Z,7.17
2019-03-15T00:37:03.279Z,7.38
2019-03-15T00:37:43.826Z,7.36
2019-03-15T00:38:24.385Z,7.38
2019-03-15T00:39:04.934Z,7.33
2019-03-15T00:39:45.482Z,7.35
2019-03-15T00:40:26.046Z,7.35
2019-03-15T00:41:06.635Z,7.36
2019-03-15T00:41:47.220Z,7.35
2019-03-15T00:42:27.770Z,7.31
2019-03-15T00:43:08.325Z,7.32
2019-03-15T00:43:49.504Z,7.33
2019-03-15T00:44:29.484Z,7.33
2019-03-15T00:45:10.043Z,7.35
2019-03-15T00:45:50.586Z,7.36
2019-03-15T00:46:31.158Z,7.33
2019-03-15T00:47:11.715Z,7.35
2019-03-15T00:47:52.291Z,7.25
2019-03-15T00:48:32.845Z,7.25
2019-03-15T00:49:13.412Z,7.31
2019-03-15T00:49:53.973Z,7.28
2019-03-15T00:50:34.543Z,7.28
2019-03-15T00:51:15.163Z,7.31
2019-03-15T00:51:55.686Z,7.25
2019-03-15T00:52:36.269Z,7.29
2019-03-15T00:53:16.835Z,7.29
2019-03-15T00:53:57.416Z,7.28
2019-03-15T00:54:37.983Z,7.31
2019-03-15T00:55:18.598Z,7.31
2019-03-15T00:55:59.105Z,7.35
2019-03-15T00:56:39.655Z,7.29
2019-03-15T00:57:20.232Z,7.31
2019-03-15T00:58:00.779Z,7.25
2019-03-15T00:58:41.364Z,7.31
2019-03-15T00:59:21.960Z,7.28
2019-03-15T01:00:02.504Z,7.29
2019-03-15T01:00:43.069Z,7.29
2019-03-15T01:01:23.656Z,7.33
2019-03-15T01:02:04.232Z,7.32
2019-03-15T01:02:44.811Z,7.29
2019-03-15T01:03:25.379Z,7.32
2019-03-15T01:04:09.123Z,7.33
2019-03-15T01:04:46.544Z,7.29
2019-03-15T01:05:27.110Z,7.31
2019-03-15T01:06:07.677Z,7.32
2019-03-15T01:06:48.245Z,7.32
2019-03-15T01:07:28.806Z,7.25
2019-03-15T01:08:09.378Z,7.28
2019-03-15T01:08:49.960Z,7.32
2019-03-15T01:09:30.515Z,7.31
2019-03-15T01:10:11.072Z,7.24
2019-03-15T01:10:51.639Z,7.32
2019-03-15T01:11:32.185Z,7.36
2019-03-15T01:12:12.735Z,7.2
2019-03-15T01:12:53.280Z,7.2
2019-03-15T01:13:33.869Z,7.29
2019-03-15T01:14:14.464Z,7.2
2019-03-15T01:14:55.025Z,7.23
2019-03-15T01:15:35.635Z,7.31
2019-03-15T01:16:16.251Z,7.25
2019-03-15T01:16:56.822Z,7.24
2019-03-15T01:17:37.430Z,7.36
2019-03-15T01:18:18.416Z,7.31
2019-03-15T01:18:58.553Z,7.32
2019-03-15T01:19:39.102Z,7.35
2019-03-15T01:20:19.678Z,7.33
2019-03-15T01:21:00.236Z,7.31
2019-03-15T01:21:40.802Z,7.31
2019-03-15T01:22:21.359Z,7.28
2019-03-15T01:23:01.928Z,7.31
2019-03-15T01:23:42.498Z,7.31
2019-03-15T01:24:23.065Z,7.31
2019-03-15T01:25:03.623Z,7.29
2019-03-15T01:25:44.172Z,7.24
2019-03-15T01:26:24.809Z,7.28
2019-03-15T01:27:05.380Z,7.25
2019-03-15T01:27:45.945Z,7.28
2019-03-15T01:28:26.512Z,7.29
2019-03-15T01:29:07.094Z,7.23
2019-03-15T01:29:47.639Z,7.23
2019-03-15T01:30:28.217Z,7.29
2019-03-15T01:31:08.760Z,7.28
2019-03-15T01:31:49.322Z,7.32
2019-03-15T01:32:29.867Z,7.29
2019-03-15T01:33:10.466Z,7.36
2019-03-15T01:33:51.049Z,7.38
2019-03-15T01:34:31.595Z,7.36
2019-03-15T01:35:12.154Z,7.31
2019-03-15T01:35:52.730Z,7.33
2019-03-15T01:36:33.273Z,7.36
2019-03-15T01:37:13.842Z,7.36
2019-03-15T01:37:54.403Z,7.32
2019-03-15T01:38:34.967Z,7.29
2019-03-15T01:39:16.009Z,7.35
2019-03-15T01:39:56.568Z,7.29
2019-03-15T01:40:37.238Z,7.31
2019-03-15T01:41:17.722Z,7.29
2019-03-15T01:41:58.293Z,7.24
2019-03-15T01:42:38.868Z,7.28
2019-03-15T01:43:19.408Z,7.25
2019-03-15T01:43:59.957Z,7.29
2019-03-15T01:44:40.575Z,7.2
2019-03-15T01:45:21.117Z,7.29
2019-03-15T01:46:01.682Z,7.31
2019-03-15T01:46:42.241Z,7.29
2019-03-15T01:47:22.798Z,7.28
2019-03-15T01:48:03.357Z,7.31
2019-03-15T01:48:43.901Z,7.33
2019-03-15T01:49:24.461Z,7.29
2019-03-15T01:50:05.023Z,7.33
2019-03-15T01:50:45.580Z,7.29
2019-03-15T01:51:26.133Z,7.32
2019-03-15T01:52:07.415Z,7.31
2019-03-15T01:52:47.994Z,7.32
2019-03-15T01:53:28.547Z,7.35
2019-03-15T01:54:09.116Z,7.32
2019-03-15T01:54:49.671Z,7.32
2019-03-15T01:55:30.241Z,7.32
2019-03-15T01:56:10.835Z,7.35
2019-03-15T01:56:51.400Z,7.32
2019-03-15T01:57:31.978Z,7.35
2019-03-15T01:58:12.537Z,7.32
2019-03-15T01:58:53.080Z,7.32
2019-03-15T01:59:33.632Z,7.38
2019-03-15T02:00:14.184Z,7.32
2019-03-15T02:00:54.786Z,7.33
2019-03-15T02:01:35.361Z,7.36
2019-03-15T02:02:15.928Z,7.42
2019-03-15T02:02:56.482Z,7.36
2019-03-15T02:03:37.057Z,7.35
2019-03-15T02:04:17.648Z,7.32
2019-03-15T02:04:58.219Z,7.35
2019-03-15T02:05:38.831Z,7.29
2019-03-15T02:06:19.339Z,7.25
2019-03-15T02:06:59.918Z,7.28
2019-03-15T02:07:40.470Z,7.28
2019-03-15T02:08:21.015Z,7.24
2019-03-15T02:09:01.568Z,7.31
2019-03-15T02:09:42.149Z,7.29
2019-03-15T02:10:22.711Z,7.33
2019-03-15T02:11:03.701Z,7.32
2019-03-15T02:11:43.840Z,7.33
2019-03-15T02:12:24.396Z,7.32
2019-03-15T02:13:04.953Z,7.31
2019-03-15T02:13:45.507Z,7.33
2019-03-15T02:14:26.206Z,7.35
2019-03-15T02:15:06.654Z,7.42
2019-03-15T02:15:47.230Z,7.33
2019-03-15T02:16:27.802Z,7.32
2019-03-15T02:17:08.370Z,7.36
2019-03-15T02:17:48.939Z,7.36
2019-03-15T02:18:29.514Z,7.36
2019-03-15T02:19:10.379Z,7.36
2019-03-15T02:19:50.660Z,7.38
2019-03-15T02:20:31.213Z,7.31
2019-03-15T02:21:11.815Z,7.32
2019-03-15T02:21:52.368Z,7.33
2019-03-15T02:22:33.501Z,7.25
2019-03-15T02:23:13.515Z,7.29
2019-03-15T02:23:54.090Z,7.33
2019-03-15T02:24:34.671Z,7.18
2019-03-15T02:25:15.254Z,7.2
2019-03-15T02:25:55.815Z,7.28
2019-03-15T02:26:36.361Z,7.15
2019-03-15T02:27:16.927Z,7.17
2019-03-15T02:27:57.526Z,7.17
2019-03-15T02:28:38.111Z,7.32
2019-03-15T02:29:18.681Z,7.24
2019-03-15T02:29:59.224Z,7.25
2019-03-15T02:30:39.788Z,7.23
2019-03-15T02:31:20.797Z,7.32
2019-03-15T02:32:00.908Z,7.33
2019-03-15T02:32:41.459Z,7.35
2019-03-15T02:33:22.023Z,7.31
2019-03-15T02:34:02.611Z,7.31
2019-03-15T02:34:43.163Z,7.29
2019-03-15T02:35:23.718Z,7.25
2019-03-15T02:36:04.284Z,7.32
2019-03-15T02:36:44.832Z,7.25
2019-03-15T02:37:25.395Z,7.2
2019-03-15T02:38:05.959Z,7.21
2019-03-15T02:38:46.512Z,7.15
2019-03-15T02:39:27.067Z,7.2
2019-03-15T02:40:07.625Z,7.21
2019-03-15T02:40:48.182Z,7.23
2019-03-15T02:41:28.779Z,7.17
2019-03-15T02:42:09.343Z,7.23
2019-03-15T02:42:49.917Z,7.14
2019-03-15T02:43:30.502Z,7.21
2019-03-15T02:44:12.307Z,7.2
2019-03-15T02:44:51.640Z,7.2
2019-03-15T02:45:33.004Z,7.21
2019-03-15T02:46:12.888Z,7.24
2019-03-15T02:46:53.455Z,7.32
2019-03-15T02:47:34.021Z,7.31
2019-03-15T02:48:14.595Z,7.18
2019-03-15T02:48:55.185Z,7.29
2019-03-15T02:49:35.733Z,7.23
2019-03-15T02:50:16.289Z,7.28
2019-03-15T02:50:56.871Z,7.28
2019-03-15T02:51:37.439Z,7.32
2019-03-15T02:52:17.995Z,7.2
2019-03-15T02:52:58.565Z,7.2
2019-03-15T02:53:39.128Z,7.25
2019-03-15T02:54:19.682Z,7.21
2019-03-15T02:55:00.430Z,7.24
2019-03-15T02:55:40.802Z,7.23
2019-03-15T02:56:21.347Z,7.29
2019-03-15T02:57:01.941Z,7.31
2019-03-15T02:57:42.501Z,7.33
2019-03-15T02:58:23.059Z,7.29
2019-03-15T02:59:03.639Z,7.31
2019-03-15T02:59:44.245Z,7.28
2019-03-15T03:00:24.802Z,7.33
2019-03-15T03:01:05.368Z,7.31
2019-03-15T03:01:45.927Z,7.35
2019-03-15T03:02:27.631Z,7.31
2019-03-15T03:03:07.059Z,7.35
2019-03-15T03:03:47.833Z,7.32
2019-03-15T03:04:28.186Z,7.29
2019-03-15T03:05:08.758Z,7.29
2019-03-15T03:05:49.319Z,7.33
2019-03-15T03:06:29.893Z,7.2
2019-03-15T03:07:10.489Z,7.36
2019-03-15T03:07:51.151Z,7.28
2019-03-15T03:08:31.691Z,7.28
2019-03-15T03:09:12.280Z,7.35
2019-03-15T03:09:52.831Z,7.29
2019-03-15T03:10:33.449Z,7.29
2019-03-15T03:11:14.169Z,7.29
2019-03-15T03:11:54.586Z,7.32
2019-03-15T03:12:35.143Z,7.38
2019-03-15T03:13:15.706Z,7.36
2019-03-15T03:13:56.263Z,7.32
2019-03-15T03:14:36.855Z,7.36
2019-03-15T03:15:17.429Z,7.32
2019-03-15T03:15:57.990Z,7.35
2019-03-15T03:16:38.541Z,7.36
2019-03-15T03:17:19.115Z,7.32
2019-03-15T03:17:59.686Z,7.42
2019-03-15T03:18:40.316Z,7.45
2019-03-15T03:19:20.890Z,7.4
2019-03-15T03:20:01.491Z,7.38
2019-03-15T03:20:42.056Z,7.39
2019-03-15T03:21:22.610Z,7.42
2019-03-15T03:22:03.184Z,7.35
2019-03-15T03:22:43.745Z,7.33
2019-03-15T03:23:24.309Z,7.39
2019-03-15T03:24:04.877Z,7.43
2019-03-15T03:24:45.472Z,7.47
2019-03-15T03:25:26.031Z,7.53
2019-03-15T03:26:08.206Z,7.48
2019-03-15T03:26:48.764Z,7.51
2019-03-15T03:27:29.383Z,7.54
2019-03-15T03:28:09.970Z,7.54
2019-03-15T03:28:50.514Z,7.45
2019-03-15T03:29:31.081Z,7.45
2019-03-15T03:30:12.005Z,7.45
2019-03-15T03:30:52.238Z,7.48
2019-03-15T03:31:32.833Z,7.38
2019-03-15T03:32:13.856Z,7.42
2019-03-15T03:32:53.942Z,7.4
2019-03-15T03:33:34.525Z,7.45
2019-03-15T03:34:15.096Z,7.42
2019-03-15T03:34:55.666Z,7.42
2019-03-15T03:35:36.235Z,7.4
2019-03-15T03:36:16.787Z,7.43
2019-03-15T03:36:58.063Z,7.32
2019-03-15T03:37:37.935Z,7.47
2019-03-15T03:38:18.516Z,7.4
2019-03-15T03:38:59.079Z,7.39
2019-03-15T03:39:39.630Z,7.47
2019-03-15T03:40:21.095Z,7.45
2019-03-15T03:41:00.761Z,7.36
2019-03-15T03:41:41.356Z,7.39
2019-03-15T03:42:21.888Z,7.38
2019-03-15T03:43:02.463Z,7.4
2019-03-15T03:43:43.040Z,7.42
2019-03-15T03:44:23.622Z,7.29
2019-03-15T03:45:04.190Z,7.33
2019-03-15T03:45:44.763Z,7.29
2019-03-15T03:46:25.310Z,7.35
2019-03-15T03:47:05.884Z,7.28
2019-03-15T03:47:46.439Z,7.29
2019-03-15T03:48:27.004Z,7.32
2019-03-15T03:49:07.620Z,7.35
2019-03-15T03:49:48.166Z,7.38
2019-03-15T03:50:28.800Z,7.38
2019-03-15T03:51:09.273Z,7.35
2019-03-15T03:51:49.824Z,7.33
2019-03-15T03:52:30.399Z,7.36
2019-03-15T03:53:10.977Z,7.4
2019-03-15T03:53:51.550Z,7.39
2019-03-15T03:54:32.133Z,7.36
2019-03-15T03:55:12.682Z,7.36
2019-03-15T03:55:53.249Z,7.36
2019-03-15T03:56:33.807Z,7.32
2019-03-15T03:57:14.399Z,7.31
2019-03-15T03:57:54.958Z,7.35
2019-03-15T03:58:35.544Z,7.38
2019-03-15T03:59:16.091Z,7.32
2019-03-15T03:59:56.665Z,7.31
2019-03-15T04:00:37.220Z,7.42
2019-03-15T04:01:18.113Z,7.36
2019-03-15T04:01:58.364Z,7.31
2019-03-15T04:02:38.940Z,7.29
2019-03-15T04:03:19.506Z,7.28
2019-03-15T04:04:00.062Z,7.33
2019-03-15T04:04:40.638Z,7.38
2019-03-15T04:05:21.205Z,7.36
2019-03-15T04:06:01.847Z,7.35
2019-03-15T04:06:42.427Z,7.35
2019-03-15T04:07:23.017Z,7.33
2019-03-15T04:08:03.575Z,7.35
2019-03-15T04:08:44.146Z,7.33
2019-03-15T04:09:24.707Z,7.42
2019-03-15T04:10:05.625Z,7.31
2019-03-15T04:10:45.851Z,7.42
2019-03-15T04:11:26.413Z,7.32
2019-03-15T04:12:06.968Z,7.31
2019-03-15T04:12:47.528Z,7.31
2019-03-15T04:13:28.078Z,7.38
2019-03-15T04:14:08.644Z,7.29
2019-03-15T04:14:49.234Z,7.31
2019-03-15T04:15:29.788Z,7.33
2019-03-15T04:16:10.347Z,7.35
2019-03-15T04:16:50.891Z,7.31
2019-03-15T04:17:31.474Z,7.32
2019-03-15T04:18:12.288Z,7.35
2019-03-15T04:18:52.610Z,7.32
2019-03-15T04:19:33.176Z,7.28
2019-03-15T04:20:13.741Z,7.33
2019-03-15T04:20:54.289Z,7.32
2019-03-15T04:21:34.922Z,7.38
2019-03-15T04:22:15.494Z,7.31
2019-03-15T04:22:56.064Z,7.32
2019-03-15T04:23:38.161Z,7.32
2019-03-15T04:24:17.200Z,7.29
2019-03-15T04:24:57.751Z,7.36
2019-03-15T04:25:40.493Z,7.32
2019-03-15T04:26:18.909Z,7.31
2019-03-15T04:26:59.477Z,7.38
2019-03-15T04:27:40.036Z,7.31
2019-03-15T04:28:20.577Z,7.42
2019-03-15T04:29:01.154Z,7.43
2019-03-15T04:29:41.736Z,7.47
2019-03-15T04:30:22.316Z,7.43
2019-03-15T04:31:02.901Z,7.4
2019-03-15T04:31:43.459Z,7.39
2019-03-15T04:32:24.035Z,7.38
2019-03-15T04:33:04.652Z,7.33
2019-03-15T04:33:45.211Z,7.35
2019-03-15T04:34:28.189Z,7.31
2019-03-15T04:35:06.323Z,7.31
2019-03-15T04:35:46.886Z,7.31
2019-03-15T04:36:27.455Z,7.33
2019-03-15T04:37:09.334Z,7.29
2019-03-15T04:37:48.588Z,7.32
2019-03-15T04:38:29.144Z,7.33
2019-03-15T04:39:09.706Z,7.31
2019-03-15T04:39:50.270Z,7.29
2019-03-15T04:40:31.104Z,7.31
2019-03-15T04:41:11.374Z,7.32
2019-03-15T04:41:51.946Z,7.33
2019-03-15T04:42:32.515Z,7.33
2019-03-15T04:43:13.083Z,7.42
2019-03-15T04:43:53.655Z,7.42
2019-03-15T04:44:34.219Z,7.45
2019-03-15T04:45:14.781Z,7.4
2019-03-15T04:45:55.366Z,7.4
2019-03-15T04:46:35.942Z,7.47
2019-03-15T04:47:16.528Z,7.43
2019-03-15T04:47:57.084Z,7.33
2019-03-15T04:48:37.655Z,7.33
2019-03-15T04:49:18.243Z,7.35
2019-03-15T04:49:58.805Z,7.36
2019-03-15T04:50:39.366Z,7.36
2019-03-15T04:51:19.971Z,7.42
2019-03-15T04:52:00.528Z,7.31
2019-03-15T04:52:41.136Z,7.36
2019-03-15T04:53:21.685Z,7.4
2019-03-15T04:54:05.305Z,7.47
2019-03-15T04:54:42.801Z,7.47
2019-03-15T04:55:23.383Z,7.45
2019-03-15T04:56:03.958Z,7.42
2019-03-15T04:56:44.537Z,7.4
2019-03-15T04:57:25.098Z,7.39
2019-03-15T04:58:05.673Z,7.42
2019-03-15T04:58:46.261Z,7.35
2019-03-15T04:59:26.845Z,7.35
2019-03-15T05:00:07.398Z,7.32
2019-03-15T05:00:47.978Z,7.38
2019-03-15T05:01:28.543Z,7.32
2019-03-15T05:02:09.093Z,7.32
2019-03-15T05:02:49.666Z,7.33
2019-03-15T05:03:30.222Z,7.23
2019-03-15T05:04:10.789Z,7.29
2019-03-15T05:04:51.375Z,7.23
2019-03-15T05:05:31.948Z,7.29
2019-03-15T05:06:12.526Z,7.31
2019-03-15T05:06:53.115Z,7.31
2019-03-15T05:07:33.686Z,7.28
2019-03-15T05:08:14.220Z,7.29
2019-03-15T05:08:54.810Z,7.15
2019-03-15T05:09:35.374Z,7.21
2019-03-15T05:10:15.940Z,7.24
2019-03-15T05:10:56.504Z,7.18
2019-03-15T05:11:37.063Z,7.2
2019-03-15T05:12:17.644Z,7.25
2019-03-15T05:12:58.210Z,7.25
2019-03-15T05:13:38.814Z,7.23
2019-03-15T05:14:19.369Z,7.21
2019-03-15T05:14:59.927Z,7.18
2019-03-15T05:15:40.487Z,7.23
2019-03-15T05:16:21.062Z,7.2
2019-03-15T05:17:01.607Z,7.21
2019-03-15T05:17:42.197Z,7.17
2019-03-15T05:18:22.776Z,7.18
2019-03-15T05:19:03.314Z,7.14
2019-03-15T05:19:43.878Z,7.15
2019-03-15T05:20:24.458Z,7.15
2019-03-15T05:21:05.023Z,7.2
2019-03-15T05:21:45.588Z,7.15
2019-03-15T05:22:26.176Z,7.21
2019-03-15T05:23:06.759Z,7.15
2019-03-15T05:23:47.343Z,7.17
2019-03-15T05:24:27.922Z,7.1
2019-03-15T05:25:08.537Z,7.14
2019-03-15T05:25:49.101Z,7.14
2019-03-15T05:26:29.693Z,7.1
2019-03-15T05:27:10.259Z,7.13
2019-03-15T05:27:50.833Z,7.13
2019-03-15T05:28:31.435Z,7.13
2019-03-15T05:29:12.006Z,7.14
2019-03-15T05:29:52.570Z,7.21
2019-03-15T05:30:33.126Z,7.1
2019-03-15T05:31:13.726Z,7.13
2019-03-15T05:31:54.296Z,7.15
2019-03-15T05:32:34.858Z,7.24
2019-03-15T05:33:15.428Z,7.23
2019-03-15T05:33:55.979Z,7.2
2019-03-15T05:34:36.591Z,7.18
2019-03-15T05:35:17.149Z,7.18
2019-03-15T05:35:57.724Z,7.24
2019-03-15T05:36:38.292Z,7.2
2019-03-15T05:37:18.864Z,7.13
2019-03-15T05:37:59.429Z,7.18
2019-03-15T05:38:39.998Z,7.24
2019-03-15T05:39:20.600Z,7.24
2019-03-15T05:40:01.154Z,7.28
2019-03-15T05:40:41.719Z,7.2
2019-03-15T05:41:22.287Z,7.28
2019-03-15T05:42:02.845Z,7.21
2019-03-15T05:42:43.412Z,7.24
2019-03-15T05:43:23.969Z,7.15
2019-03-15T05:44:04.548Z,7.17
2019-03-15T05:44:45.110Z,7.18
2019-03-15T05:45:25.675Z,7.31
2019-03-15T05:46:06.318Z,7.18
2019-03-15T05:46:46.844Z,7.24
2019-03-15T05:47:27.395Z,7.2
2019-03-15T05:48:07.956Z,7.14
2019-03-15T05:48:48.524Z,7.2
2019-03-15T05:49:29.125Z,7.17
2019-03-15T05:50:09.682Z,7.25
2019-03-15T05:50:50.239Z,7.2
2019-03-15T05:51:30.788Z,7.2
2019-03-15T05:52:11.364Z,7.17
2019-03-15T05:52:51.931Z,7.2
2019-03-15T05:53:32.495Z,7.15
2019-03-15T05:54:13.074Z,7.25
2019-03-15T05:54:53.619Z,7.18
2019-03-15T05:55:34.185Z,7.29
2019-03-15T05:56:14.743Z,7.31
2019-03-15T05:56:55.295Z,7.18
2019-03-15T05:57:35.862Z,7.17
2019-03-15T05:58:16.557Z,7.23
2019-03-15T05:58:57.106Z,7.24
2019-03-15T05:59:37.834Z,7.29
2019-03-15T06:00:18.541Z,7.31
2019-03-15T06:00:59.191Z,7.31
2019-03-15T06:01:39.869Z,7.33
2019-03-15T06:02:20.417Z,7.35
2019-03-15T06:03:00.955Z,7.36
2019-03-15T06:03:48.179Z,7.18
2019-03-15T06:04:22.065Z,7.28
2019-03-15T06:05:02.632Z,7.18
2019-03-15T06:05:43.187Z,7.29
2019-03-15T06:06:23.743Z,7.33
2019-03-15T06:07:04.304Z,7.31
2019-03-15T06:07:44.882Z,7.24
2019-03-15T06:08:27.514Z,7.35
2019-03-15T06:09:06.026Z,7.31
2019-03-15T06:09:46.579Z,7.35
2019-03-15T06:10:27.149Z,7.35
2019-03-15T06:11:07.685Z,7.35
2019-03-15T06:11:48.272Z,7.4
2019-03-15T06:12:28.913Z,7.33
2019-03-15T06:13:09.553Z,7.29
2019-03-15T06:13:50.173Z,7.43
2019-03-15T06:14:30.889Z,7.4
2019-03-15T06:15:11.447Z,7.4
2019-03-15T06:15:52.033Z,7.35
2019-03-15T06:16:32.595Z,7.43
2019-03-15T06:17:13.184Z,7.42
2019-03-15T06:17:53.757Z,7.43
2019-03-15T06:18:34.343Z,7.35
2019-03-15T06:19:14.913Z,7.45
2019-03-15T06:19:55.492Z,7.43
2019-03-15T06:20:36.067Z,7.47
2019-03-15T06:21:16.611Z,7.4
2019-03-15T06:21:57.199Z,7.42
2019-03-15T06:22:37.763Z,7.43
2019-03-15T06:23:18.340Z,7.45
2019-03-15T06:23:58.906Z,7.39
2019-03-15T06:24:39.469Z,7.42
2019-03-15T06:25:20.030Z,7.48
2019-03-15T06:26:00.606Z,7.38
2019-03-15T06:26:41.194Z,7.39
2019-03-15T06:27:21.768Z,7.43
2019-03-15T06:28:02.353Z,7.39
2019-03-15T06:28:43.158Z,7.38
2019-03-15T06:29:23.743Z,7.47
2019-03-15T06:30:04.340Z,7.48
2019-03-15T06:30:44.883Z,7.43
2019-03-15T06:31:25.430Z,7.47
2019-03-15T06:32:06.022Z,7.42
2019-03-15T06:32:46.585Z,7.54
2019-03-15T06:33:28.641Z,7.51
2019-03-15T06:34:07.738Z,7.47
2019-03-15T06:34:48.352Z,7.53
2019-03-15T06:35:28.930Z,7.51
2019-03-15T06:36:09.525Z,7.53
2019-03-15T06:36:51.713Z,7.56
2019-03-15T06:37:32.450Z,7.5
2019-03-15T06:38:13.118Z,7.47
2019-03-15T06:38:53.833Z,7.66
2019-03-15T06:39:34.392Z,7.6
2019-03-15T06:40:14.999Z,7.63
2019-03-15T06:40:55.552Z,7.6
2019-03-15T06:41:36.127Z,7.58
2019-03-15T06:42:16.710Z,7.61
2019-03-15T06:42:57.342Z,7.61
2019-03-15T06:43:37.990Z,7.63
2019-03-15T06:44:18.638Z,7.66
2019-03-15T06:44:59.272Z,7.58
2019-03-15T06:45:41.774Z,7.66
2019-03-15T06:46:20.670Z,7.63
2019-03-15T06:47:01.387Z,7.6
2019-03-15T06:47:41.974Z,7.61
2019-03-15T06:48:24.673Z,7.6
2019-03-15T06:49:04.397Z,7.66
2019-03-15T06:49:44.961Z,7.57
2019-03-15T06:50:25.559Z,7.57
2019-03-15T06:51:09.035Z,7.6
2019-03-15T06:51:46.739Z,7.6
2019-03-15T06:52:27.306Z,7.57
2019-03-15T06:53:09.388Z,7.67
2019-03-15T06:53:50.531Z,7.7
2019-03-15T06:54:31.239Z,7.73
2019-03-15T06:55:11.831Z,7.73
2019-03-15T06:55:52.420Z,7.73
2019-03-15T06:56:32.994Z,7.83
2019-03-15T06:57:13.573Z,7.82
2019-03-15T06:57:54.171Z,7.77
2019-03-15T06:58:34.710Z,7.76
2019-03-15T06:59:15.258Z,7.85
2019-03-15T06:59:55.920Z,7.72
2019-03-15T07:00:36.470Z,7.76
2019-03-15T07:01:17.026Z,7.85
2019-03-15T07:01:57.593Z,7.82
2019-03-15T07:02:38.178Z,7.8
2019-03-15T07:03:18.885Z,7.76
2019-03-15T07:03:59.363Z,7.82
2019-03-15T07:04:39.976Z,7.7
2019-03-15T07:05:20.788Z,7.7
2019-03-15T07:06:01.081Z,7.85
2019-03-15T07:06:42.490Z,7.82
2019-03-15T07:07:22.222Z,7.75
2019-03-15T07:08:02.814Z,7.7
2019-03-15T07:08:43.375Z,7.77
2019-03-15T07:09:23.940Z,7.75
2019-03-15T07:10:04.600Z,7.77
2019-03-15T07:10:45.233Z,7.75
2019-03-15T07:11:25.795Z,7.69
2019-03-15T07:12:09.498Z,7.7
2019-03-15T07:12:48.055Z,7.9
2019-03-15T07:13:28.640Z,7.83
2019-03-15T07:14:09.223Z,7.87
2019-03-15T07:14:49.910Z,7.82
2019-03-15T07:15:30.861Z,7.76
2019-03-15T07:16:11.596Z,7.72
2019-03-15T07:16:53.679Z,7.72
2019-03-15T07:17:34.368Z,7.79
2019-03-15T07:18:18.128Z,7.82
2019-03-15T07:18:55.773Z,7.79
2019-03-15T07:19:36.357Z,7.67
2019-03-15T07:20:16.955Z,7.76
2019-03-15T07:20:57.533Z,7.75
2019-03-15T07:21:38.113Z,7.79
2019-03-15T07:22:20.053Z,7.76
2019-03-15T07:22:59.419Z,7.83
2019-03-15T07:23:40.033Z,7.85
2019-03-15T07:24:25.323Z,7.87
2019-03-15T07:25:01.298Z,7.83
2019-03-15T07:25:41.881Z,7.9
2019-03-15T07:26:22.876Z,7.82
2019-03-15T07:27:12.476Z,7.91
2019-03-15T07:27:44.010Z,8
2019-03-15T07:28:24.580Z,7.87
2019-03-15T07:29:05.149Z,7.93
2019-03-15T07:29:45.813Z,8
2019-03-15T07:30:26.708Z,7.94
2019-03-15T07:31:07.620Z,8.1
2019-03-15T07:31:48.519Z,8.01
2019-03-15T07:32:29.345Z,8.05
2019-03-15T07:33:10.127Z,8.03
2019-03-15T07:33:50.992Z,8
2019-03-15T07:34:31.788Z,8
2019-03-15T07:35:13.501Z,8.05
2019-03-15T07:35:54.256Z,8.01
2019-03-15T07:36:37.221Z,8.05
2019-03-15T07:37:15.978Z,8.05
2019-03-15T07:37:56.593Z,8.1
2019-03-15T07:38:37.184Z,8.15
2019-03-15T07:39:17.776Z,8.18
2019-03-15T07:39:58.648Z,8.13
2019-03-15T07:40:39.316Z,8.15
2019-03-15T07:41:20.279Z,8.13
2019-03-15T07:42:01.096Z,8.12
2019-03-15T07:42:41.865Z,8.18
2019-03-15T07:43:22.683Z,8.24
2019-03-15T07:44:03.380Z,8.18
2019-03-15T07:44:44.063Z,8.3
2019-03-15T07:45:24.713Z,8.27
2019-03-15T07:46:05.398Z,8.28
2019-03-15T07:46:46.087Z,8.26
2019-03-15T07:47:26.694Z,8.28
2019-03-15T07:48:07.291Z,8.38
2019-03-15T07:48:47.857Z,8.33
2019-03-15T07:49:30.218Z,8.31
2019-03-15T07:50:13.873Z,8.42
2019-03-15T07:50:51.569Z,8.51
2019-03-15T07:51:32.090Z,8.45
2019-03-15T07:52:12.642Z,8.53
2019-03-15T07:52:53.305Z,8.55
2019-03-15T07:53:35.311Z,8.55
2019-03-15T07:54:14.567Z,8.52
2019-03-15T07:54:55.182Z,8.6
2019-03-15T07:55:35.852Z,8.63
2019-03-15T07:56:16.446Z,8.61
2019-03-15T07:56:57.200Z,8.73
2019-03-15T07:57:37.714Z,8.87
2019-03-15T07:58:18.261Z,8.84
2019-03-15T07:58:58.839Z,8.88
2019-03-15T07:59:39.409Z,8.76
2019-03-15T08:00:19.976Z,8.87
2019-03-15T08:01:00.533Z,8.87
2019-03-15T08:01:41.143Z,8.85
2019-03-15T08:02:21.799Z,8.74
2019-03-15T08:03:02.360Z,8.78
2019-03-15T08:03:42.928Z,8.79
2019-03-15T08:04:23.478Z,8.71
2019-03-15T08:05:04.066Z,8.78
2019-03-15T08:05:44.631Z,8.89
2019-03-15T08:06:34.408Z,8.94
2019-03-15T08:07:05.758Z,8.94
2019-03-15T08:07:46.321Z,9.1
2019-03-15T08:08:26.958Z,9.08
2019-03-15T08:09:07.512Z,9.11
2019-03-15T08:09:50.693Z,9.06
2019-03-15T08:10:28.657Z,9.1
2019-03-15T08:11:09.306Z,9.13
2019-03-15T08:11:49.857Z,9.14
2019-03-15T08:12:30.431Z,9.1
2019-03-15T08:13:11.025Z,9.1
2019-03-15T08:13:51.603Z,9
2019-03-15T08:14:32.211Z,9.1
2019-03-15T08:15:12.833Z,8.92
2019-03-15T08:15:53.412Z,8.95
2019-03-15T08:16:34.576Z,9.02
2019-03-15T08:17:14.552Z,8.94
2019-03-15T08:17:55.106Z,8.94
2019-03-15T08:18:35.654Z,8.92
2019-03-15T08:19:16.444Z,8.92
2019-03-15T08:19:56.974Z,8.95
2019-03-15T08:20:37.628Z,8.89
2019-03-15T08:21:18.213Z,8.88
2019-03-15T08:21:58.842Z,8.92
2019-03-15T08:22:39.394Z,8.89
2019-03-15T08:23:19.993Z,8.89
2019-03-15T08:24:00.561Z,8.95
2019-03-15T08:24:50.761Z,8.91
2019-03-15T08:25:21.749Z,8.94
2019-03-15T08:26:02.304Z,8.94
2019-03-15T08:26:42.868Z,8.94
2019-03-15T08:27:23.480Z,8.95
2019-03-15T08:28:04.066Z,8.95
2019-03-15T08:28:44.598Z,8.94
2019-03-15T08:29:25.161Z,8.89
2019-03-15T08:30:05.746Z,8.94
2019-03-15T08:30:46.355Z,9
2019-03-15T08:31:26.877Z,8.97
2019-03-15T08:32:12.210Z,8.91
2019-03-15T08:32:52.846Z,8.97
2019-03-15T08:33:35.627Z,8.94
2019-03-15T08:34:16.244Z,8.91
2019-03-15T08:34:56.792Z,8.88
2019-03-15T08:35:37.444Z,8.92
2019-03-15T08:36:20.216Z,8.92
2019-03-15T08:36:58.604Z,8.87
2019-03-15T08:37:39.187Z,8.95
2019-03-15T08:38:19.756Z,8.91
2019-03-15T08:39:00.410Z,8.88
2019-03-15T08:39:41.531Z,8.94
2019-03-15T08:40:22.125Z,8.89
2019-03-15T08:41:02.657Z,8.97
2019-03-15T08:41:43.205Z,9
2019-03-15T08:42:23.780Z,8.92
2019-03-15T08:43:04.337Z,8.99
2019-03-15T08:43:46.082Z,8.95
2019-03-15T08:44:25.483Z,9
2019-03-15T08:45:06.058Z,9.02
2019-03-15T08:45:46.646Z,8.97
2019-03-15T08:46:27.248Z,9
2019-03-15T08:47:07.806Z,8.95
2019-03-15T08:47:48.419Z,8.88
2019-03-15T08:48:31.786Z,8.94
2019-03-15T08:49:09.547Z,8.91
2019-03-15T08:49:50.133Z,8.89
2019-03-15T08:50:30.806Z,8.94
2019-03-15T08:51:11.373Z,8.99
2019-03-15T08:52:03.259Z,8.91
2019-03-15T08:52:32.522Z,8.91
2019-03-15T08:53:13.074Z,8.95
2019-03-15T08:53:53.648Z,8.89
2019-03-15T08:54:34.213Z,8.91
2019-03-15T08:55:14.794Z,8.92
2019-03-15T08:55:55.363Z,8.94
2019-03-15T08:56:35.920Z,8.92
2019-03-15T08:57:16.480Z,8.91
2019-03-15T08:57:57.041Z,8.91
2019-03-15T08:58:37.618Z,8.92
2019-03-15T08:59:18.184Z,8.88
2019-03-15T08:59:58.764Z,8.87
2019-03-15T09:00:39.334Z,8.91
2019-03-15T09:01:19.991Z,8.94
2019-03-15T09:02:00.535Z,8.91
2019-03-15T09:02:41.091Z,8.94